createdAt,value
2023-03-05T00:00:53.197Z,1010.70
2023-03-05T00:01:53.155Z,1010.66
2023-03-05T00:02:53.202Z,1010.65
2023-03-05T00:03:53.207Z,1010.65
2023-03-05T00:04:53.130Z,1010.68
2023-03-05T00:05:53.137Z,1010.70
2023-03-05T00:06:53.108Z,1010.66
2023-03-05T00:07:53.097Z,1010.63
2023-03-05T00:08:53.079Z,1010.59
2023-03-05T00:09:53.095Z,1010.64
2023-03-05T00:10:53.099Z,1010.56
2023-03-05T00:11:53.047Z,1010.50
2023-03-05T00:12:53.030Z,1010.50
2023-03-05T00:13:53.067Z,1010.47
2023-03-05T00:14:53.038Z,1010.52
2023-03-05T00:15:53.092Z,1010.48
2023-03-05T00:16:52.992Z,1010.47
2023-03-05T00:17:52.978Z,1010.49
2023-03-05T00:18:52.967Z,1010.48
2023-03-05T00:19:52.977Z,1010.45
2023-03-05T00:20:52.965Z,1010.41
2023-03-05T00:21:52.929Z,1010.42
2023-03-05T00:22:52.922Z,1010.33
2023-03-05T00:23:52.910Z,1010.33
2023-03-05T00:24:52.908Z,1010.36
2023-03-05T00:25:52.911Z,1010.28
2023-03-05T00:26:52.904Z,1010.34
2023-03-05T00:27:52.865Z,1010.27
2023-03-05T00:28:52.858Z,1010.27
2023-03-05T00:29:52.868Z,1010.26
2023-03-05T00:30:52.876Z,1010.19
2023-03-05T00:31:52.817Z,1010.25
2023-03-05T00:32:52.812Z,1010.18
2023-03-05T00:33:52.795Z,1010.17
2023-03-05T00:34:52.815Z,1010.17
2023-03-05T00:35:52.871Z,1010.18
2023-03-05T00:36:52.825Z,1010.16
2023-03-05T00:37:52.752Z,1010.13
2023-03-05T00:38:52.753Z,1010.13
2023-03-05T00:39:52.731Z,1010.16
2023-03-05T00:40:52.726Z,1010.09
2023-03-05T00:41:52.726Z,1010.11
2023-03-05T00:42:52.724Z,1010.08
2023-03-05T00:43:52.703Z,1010.05
2023-03-05T00:44:52.683Z,1010.07
2023-03-05T00:45:52.689Z,1010.05
2023-03-05T00:46:52.717Z,1010.08
2023-03-05T00:47:52.654Z,1010.06
2023-03-05T00:48:52.667Z,1010.00
2023-03-05T00:49:52.620Z,1010.02
2023-03-05T00:50:52.637Z,1010.03
2023-03-05T00:51:52.612Z,1009.94
2023-03-05T00:52:52.589Z,1009.92
2023-03-05T00:53:52.574Z,1009.92
2023-03-05T00:54:52.567Z,1009.92
2023-03-05T00:55:52.589Z,1009.91
2023-03-05T00:56:52.566Z,1009.95
2023-03-05T00:57:52.549Z,1009.88
2023-03-05T00:58:52.547Z,1009.92
2023-03-05T00:59:52.510Z,1009.87
2023-03-05T01:00:52.538Z,1009.93
2023-03-05T01:01:52.555Z,1009.84
2023-03-05T01:02:52.481Z,1009.78
2023-03-05T01:03:52.494Z,1009.81
2023-03-05T01:04:52.489Z,1009.83
2023-03-05T01:05:52.456Z,1009.76
2023-03-05T01:06:52.430Z,1009.80
2023-03-05T01:07:52.406Z,1009.74
2023-03-05T01:08:52.412Z,1009.72
2023-03-05T01:09:52.385Z,1009.75
2023-03-05T01:10:52.400Z,1009.65
2023-03-05T01:11:52.369Z,1009.69
2023-03-05T01:12:52.350Z,1009.64
2023-03-05T01:13:52.341Z,1009.69
2023-03-05T01:14:52.349Z,1009.65
2023-03-05T01:15:52.363Z,1009.64
2023-03-05T01:16:52.333Z,1009.68
2023-03-05T01:17:52.286Z,1009.72
2023-03-05T01:18:52.281Z,1009.71
2023-03-05T01:19:52.265Z,1009.63
2023-03-05T01:20:52.284Z,1009.64
2023-03-05T01:21:52.253Z,1009.61
2023-03-05T01:22:52.235Z,1009.65
2023-03-05T01:23:52.217Z,1009.59
2023-03-05T01:24:52.209Z,1009.63
2023-03-05T01:25:52.222Z,1009.58
2023-03-05T01:26:52.186Z,1009.57
2023-03-05T01:27:52.172Z,1009.53
2023-03-05T01:28:52.168Z,1009.61
2023-03-05T01:29:52.150Z,1009.56
2023-03-05T01:30:52.193Z,1009.54
2023-03-05T01:31:52.201Z,1009.53
2023-03-05T01:32:52.118Z,1009.58
2023-03-05T01:33:52.114Z,1009.53
2023-03-05T01:34:52.098Z,1009.57
2023-03-05T01:35:52.157Z,1009.60
2023-03-05T01:36:52.076Z,1009.57
2023-03-05T01:37:52.061Z,1009.50
2023-03-05T01:38:52.071Z,1009.54
2023-03-05T01:39:52.044Z,1009.45
2023-03-05T01:40:52.058Z,1009.51
2023-03-05T01:41:52.016Z,1009.46
2023-03-05T01:42:52.034Z,1009.51
2023-03-05T01:43:51.996Z,1009.43
2023-03-05T01:44:51.988Z,1009.51
2023-03-05T01:45:52.010Z,1009.56
2023-03-05T01:46:52.012Z,1009.47
2023-03-05T01:47:51.974Z,1009.43
2023-03-05T01:48:51.947Z,1009.45
2023-03-05T01:49:51.927Z,1009.44
2023-03-05T01:50:51.916Z,1009.43
2023-03-05T01:51:51.909Z,1009.38
2023-03-05T01:52:51.924Z,1009.44
2023-03-05T01:53:51.891Z,1009.39
2023-03-05T01:54:51.875Z,1009.35
2023-03-05T01:55:51.872Z,1009.39
2023-03-05T01:56:51.853Z,1009.34
2023-03-05T01:57:51.862Z,1009.46
2023-03-05T01:58:51.848Z,1009.38
2023-03-05T01:59:51.818Z,1009.41
2023-03-05T02:00:51.822Z,1009.37
2023-03-05T02:01:51.797Z,1009.35
2023-03-05T02:02:51.842Z,1009.38
2023-03-05T02:03:51.857Z,1009.31
2023-03-05T02:04:51.771Z,1009.33
2023-03-05T02:05:51.750Z,1009.34
2023-03-05T02:06:51.741Z,1009.36
2023-03-05T02:07:51.753Z,1009.33
2023-03-05T02:08:51.727Z,1009.37
2023-03-05T02:09:51.707Z,1009.33
2023-03-05T02:10:51.722Z,1009.26
2023-03-05T02:11:51.694Z,1009.27
2023-03-05T02:12:51.724Z,1009.29
2023-03-05T02:13:51.674Z,1009.28
2023-03-05T02:14:51.655Z,1009.31
2023-03-05T02:15:51.649Z,1009.31
2023-03-05T02:16:51.776Z,1009.27
2023-03-05T02:17:51.624Z,1009.25
2023-03-05T02:18:51.655Z,1009.28
2023-03-05T02:19:51.609Z,1009.21
2023-03-05T02:20:51.594Z,1009.28
2023-03-05T02:21:51.577Z,1009.17
2023-03-05T02:22:51.594Z,1009.23
2023-03-05T02:23:51.562Z,1009.23
2023-03-05T02:24:51.598Z,1009.22
2023-03-05T02:25:51.538Z,1009.20
2023-03-05T02:26:51.531Z,1009.20
2023-03-05T02:27:51.518Z,1009.21
2023-03-05T02:28:51.514Z,1009.19
2023-03-05T02:29:51.514Z,1009.20
2023-03-05T02:30:51.505Z,1009.23
2023-03-05T02:31:51.519Z,1009.19
2023-03-05T02:32:51.505Z,1009.17
2023-03-05T02:33:51.452Z,1009.11
2023-03-05T02:34:51.476Z,1009.14
2023-03-05T02:35:51.512Z,1009.08
2023-03-05T02:36:51.432Z,1009.13
2023-03-05T02:37:51.439Z,1009.08
2023-03-05T02:38:51.397Z,1009.02
2023-03-05T02:39:51.389Z,1009.06
2023-03-05T02:40:51.380Z,1009.05
2023-03-05T02:41:51.366Z,1008.97
2023-03-05T02:42:51.378Z,1009.00
2023-03-05T02:43:51.364Z,1008.99
2023-03-05T02:44:51.370Z,1009.02
2023-03-05T02:45:51.422Z,1008.91
2023-03-05T02:46:51.315Z,1008.89
2023-03-05T02:47:51.325Z,1008.97
2023-03-05T02:48:51.300Z,1008.96
2023-03-05T02:49:51.283Z,1008.90
2023-03-05T02:50:51.330Z,1008.90
2023-03-05T02:51:51.271Z,1008.92
2023-03-05T02:52:51.285Z,1008.88
2023-03-05T02:53:51.237Z,1008.86
2023-03-05T02:54:51.234Z,1008.83
2023-03-05T02:55:51.238Z,1008.79
2023-03-05T02:56:51.211Z,1008.83
2023-03-05T02:57:51.205Z,1008.80
2023-03-05T02:58:51.200Z,1008.80
2023-03-05T02:59:51.217Z,1008.83
2023-03-05T03:00:51.217Z,1008.80
2023-03-05T03:01:51.169Z,1008.88
2023-03-05T03:02:51.200Z,1008.78
2023-03-05T03:03:51.163Z,1008.80
2023-03-05T03:04:51.126Z,1008.76
2023-03-05T03:05:51.120Z,1008.79
2023-03-05T03:06:51.148Z,1008.76
2023-03-05T03:07:51.110Z,1008.79
2023-03-05T03:08:51.084Z,1008.76
2023-03-05T03:09:51.103Z,1008.77
2023-03-05T03:10:51.066Z,1008.81
2023-03-05T03:11:51.051Z,1008.75
2023-03-05T03:12:51.048Z,1008.75
2023-03-05T03:13:51.025Z,1008.75
2023-03-05T03:14:51.042Z,1008.70
2023-03-05T03:15:51.003Z,1008.70
2023-03-05T03:16:51.012Z,1008.70
2023-03-05T03:17:50.980Z,1008.68
2023-03-05T03:18:50.976Z,1008.71
2023-03-05T03:19:50.991Z,1008.66
2023-03-05T03:20:50.957Z,1008.65
2023-03-05T03:21:50.963Z,1008.64
2023-03-05T03:22:50.955Z,1008.66
2023-03-05T03:23:50.929Z,1008.59
2023-03-05T03:24:50.916Z,1008.63
2023-03-05T03:25:50.900Z,1008.56
2023-03-05T03:26:50.921Z,1008.66
2023-03-05T03:27:50.887Z,1008.55
2023-03-05T03:28:50.866Z,1008.59
2023-03-05T03:29:50.886Z,1008.52
2023-03-05T03:30:50.941Z,1008.46
2023-03-05T03:31:50.900Z,1008.55
2023-03-05T03:32:50.826Z,1008.54
2023-03-05T03:33:50.814Z,1008.40
2023-03-05T03:34:50.803Z,1008.52
2023-03-05T03:35:50.854Z,1008.44
2023-03-05T03:36:50.784Z,1008.50
2023-03-05T03:37:50.797Z,1008.46
2023-03-05T03:38:50.779Z,1008.46
2023-03-05T03:39:50.763Z,1008.42
2023-03-05T03:40:50.746Z,1008.45
2023-03-05T03:41:50.734Z,1008.46
2023-03-05T03:42:50.733Z,1008.40
2023-03-05T03:43:50.705Z,1008.39
2023-03-05T03:44:50.695Z,1008.44
2023-03-05T03:45:50.721Z,1008.39
2023-03-05T03:46:50.683Z,1008.38
2023-03-05T03:47:50.702Z,1008.42
2023-03-05T03:48:50.655Z,1008.41
2023-03-05T03:49:50.688Z,1008.38
2023-03-05T03:50:50.636Z,1008.35
2023-03-05T03:51:50.631Z,1008.34
2023-03-05T03:52:50.616Z,1008.25
2023-03-05T03:53:50.599Z,1008.37
2023-03-05T03:54:50.603Z,1008.35
2023-03-05T03:55:50.603Z,1008.34
2023-03-05T03:56:50.560Z,1008.30
2023-03-05T03:57:50.554Z,1008.29
2023-03-05T03:58:50.547Z,1008.26
2023-03-05T03:59:50.579Z,1008.22
2023-03-05T04:00:50.543Z,1008.21
2023-03-05T04:01:50.521Z,1008.26
2023-03-05T04:02:50.559Z,1008.15
2023-03-05T04:03:50.493Z,1008.21
2023-03-05T04:04:50.474Z,1008.20
2023-03-05T04:05:50.491Z,1008.23
2023-03-05T04:06:50.455Z,1008.20
2023-03-05T04:07:50.447Z,1008.17
2023-03-05T04:08:50.442Z,1008.22
2023-03-05T04:09:50.424Z,1008.25
2023-03-05T04:10:50.458Z,1008.08
2023-03-05T04:11:50.411Z,1008.08
2023-03-05T04:12:50.389Z,1008.19
2023-03-05T04:13:50.386Z,1008.23
2023-03-05T04:14:50.373Z,1008.16
2023-03-05T04:15:50.598Z,1008.14
2023-03-05T04:16:50.358Z,1008.16
2023-03-05T04:17:50.340Z,1008.11
2023-03-05T04:18:50.329Z,1008.10
2023-03-05T04:19:50.315Z,1008.08
2023-03-05T04:20:50.328Z,1008.07
2023-03-05T04:21:50.292Z,1008.07
2023-03-05T04:22:50.304Z,1008.14
2023-03-05T04:23:50.301Z,1008.05
2023-03-05T04:24:50.256Z,1008.01
2023-03-05T04:25:50.254Z,1008.08
2023-03-05T04:26:50.258Z,1008.01
2023-03-05T04:27:50.261Z,1008.04
2023-03-05T04:28:50.219Z,1008.02
2023-03-05T04:29:50.202Z,1008.06
2023-03-05T04:30:50.225Z,1008.04
2023-03-05T04:31:50.204Z,1007.99
2023-03-05T04:32:50.170Z,1007.97
2023-03-05T04:33:50.175Z,1008.00
2023-03-05T04:34:50.139Z,1008.06
2023-03-05T04:35:50.250Z,1007.98
2023-03-05T04:36:50.135Z,1008.03
2023-03-05T04:37:50.114Z,1007.97
2023-03-05T04:38:50.101Z,1007.98
2023-03-05T04:39:50.095Z,1007.93
2023-03-05T04:40:50.081Z,1007.98
2023-03-05T04:41:50.112Z,1007.97
2023-03-05T04:42:50.075Z,1007.89
2023-03-05T04:43:50.052Z,1007.89
2023-03-05T04:44:50.031Z,1008.00
2023-03-05T04:45:50.022Z,1007.85
2023-03-05T04:46:50.103Z,1007.88
2023-03-05T04:47:50.004Z,1007.86
2023-03-05T04:48:49.992Z,1007.82
2023-03-05T04:49:49.988Z,1007.85
2023-03-05T04:50:49.988Z,1007.85
2023-03-05T04:51:49.984Z,1007.84
2023-03-05T04:52:49.949Z,1007.84
2023-03-05T04:53:49.963Z,1007.79
2023-03-05T04:54:49.924Z,1007.82
2023-03-05T04:55:49.912Z,1007.80
2023-03-05T04:56:49.898Z,1007.76
2023-03-05T04:57:49.893Z,1007.83
2023-03-05T04:58:49.923Z,1007.79
2023-03-05T04:59:49.876Z,1007.76
2023-03-05T05:00:49.854Z,1007.81
2023-03-05T05:01:49.897Z,1007.83
2023-03-05T05:02:49.923Z,1007.83
2023-03-05T05:03:49.851Z,1007.86
2023-03-05T05:04:49.812Z,1007.82
2023-03-05T05:05:49.809Z,1007.78
2023-03-05T05:06:49.816Z,1007.78
2023-03-05T05:07:49.784Z,1007.79
2023-03-05T05:08:49.796Z,1007.82
2023-03-05T05:09:49.768Z,1007.83
2023-03-05T05:10:49.748Z,1007.77
2023-03-05T05:11:49.739Z,1007.81
2023-03-05T05:12:49.735Z,1007.80
2023-03-05T05:13:49.742Z,1007.79
2023-03-05T05:14:49.731Z,1007.81
2023-03-05T05:15:49.753Z,1007.75
2023-03-05T05:16:49.681Z,1007.71
2023-03-05T05:17:49.681Z,1007.76
2023-03-05T05:18:49.701Z,1007.77
2023-03-05T05:19:49.661Z,1007.80
2023-03-05T05:20:49.664Z,1007.72
2023-03-05T05:21:49.635Z,1007.74
2023-03-05T05:22:49.616Z,1007.75
2023-03-05T05:23:49.609Z,1007.70
2023-03-05T05:24:49.616Z,1007.74
2023-03-05T05:25:49.581Z,1007.76
2023-03-05T05:26:49.573Z,1007.74
2023-03-05T05:27:49.584Z,1007.72
2023-03-05T05:28:49.575Z,1007.70
2023-03-05T05:29:49.568Z,1007.73
2023-03-05T05:30:49.566Z,1007.75
2023-03-05T05:31:49.562Z,1007.72
2023-03-05T05:32:49.507Z,1007.77
2023-03-05T05:33:50.046Z,1007.76
2023-03-05T05:34:49.506Z,1007.72
2023-03-05T05:35:49.568Z,1007.68
2023-03-05T05:36:49.467Z,1007.68
2023-03-05T05:37:49.462Z,1007.64
2023-03-05T05:38:49.464Z,1007.68
2023-03-05T05:39:49.467Z,1007.66
2023-03-05T05:40:49.425Z,1007.68
2023-03-05T05:41:49.421Z,1007.72
2023-03-05T05:42:49.406Z,1007.74
2023-03-05T05:43:49.433Z,1007.78
2023-03-05T05:44:49.441Z,1007.71
2023-03-05T05:45:49.513Z,1007.78
2023-03-05T05:46:49.541Z,1007.77
2023-03-05T05:47:49.365Z,1007.74
2023-03-05T05:48:49.343Z,1007.76
2023-03-05T05:49:49.332Z,1007.77
2023-03-05T05:50:49.318Z,1007.80
2023-03-05T05:51:49.333Z,1007.79
2023-03-05T05:52:49.294Z,1007.84
2023-03-05T05:53:49.298Z,1007.82
2023-03-05T05:54:49.279Z,1007.80
2023-03-05T05:55:49.268Z,1007.83
2023-03-05T05:56:49.272Z,1007.85
2023-03-05T05:57:49.245Z,1007.86
2023-03-05T05:58:49.247Z,1007.89
2023-03-05T05:59:49.249Z,1007.84
2023-03-05T06:00:49.205Z,1007.79
2023-03-05T06:01:49.239Z,1007.83
2023-03-05T06:02:49.254Z,1007.89
2023-03-05T06:03:49.190Z,1007.82
2023-03-05T06:04:49.192Z,1007.85
2023-03-05T06:05:49.187Z,1007.85
2023-03-05T06:06:49.145Z,1007.82
2023-03-05T06:07:49.141Z,1007.83
2023-03-05T06:08:49.122Z,1007.72
2023-03-05T06:09:49.112Z,1007.81
2023-03-05T06:10:49.122Z,1007.79
2023-03-05T06:11:49.090Z,1007.77
2023-03-05T06:12:49.083Z,1007.83
2023-03-05T06:13:49.076Z,1007.80
2023-03-05T06:14:49.077Z,1007.81
2023-03-05T06:15:49.047Z,1007.83
2023-03-05T06:16:49.175Z,1007.78
2023-03-05T06:17:49.050Z,1007.76
2023-03-05T06:18:49.047Z,1007.77
2023-03-05T06:19:49.013Z,1007.79
2023-03-05T06:20:49.022Z,1007.74
2023-03-05T06:21:48.982Z,1007.76
2023-03-05T06:22:48.971Z,1007.78
2023-03-05T06:23:48.978Z,1007.77
2023-03-05T06:24:48.951Z,1007.64
2023-03-05T06:25:48.947Z,1007.73
2023-03-05T06:26:48.927Z,1007.75
2023-03-05T06:27:48.926Z,1007.72
2023-03-05T06:28:48.939Z,1007.74
2023-03-05T06:29:48.906Z,1007.74
2023-03-05T06:30:48.966Z,1007.74
2023-03-05T06:31:48.879Z,1007.73
2023-03-05T06:32:48.884Z,1007.75
2023-03-05T06:33:48.876Z,1007.72
2023-03-05T06:34:48.863Z,1007.83
2023-03-05T06:35:48.870Z,1007.76
2023-03-05T06:36:48.834Z,1007.73
2023-03-05T06:37:48.814Z,1007.70
2023-03-05T06:38:49.159Z,1007.78
2023-03-05T06:39:48.804Z,1007.81
2023-03-05T06:40:48.777Z,1007.80
2023-03-05T06:41:48.769Z,1007.76
2023-03-05T06:42:48.756Z,1007.72
2023-03-05T06:43:48.781Z,1007.70
2023-03-05T06:44:48.776Z,1007.74
2023-03-05T06:45:48.754Z,1007.72
2023-03-05T06:46:48.737Z,1007.70
2023-03-05T06:47:48.702Z,1007.72
2023-03-05T06:48:48.686Z,1007.60
2023-03-05T06:49:48.688Z,1007.64
2023-03-05T06:50:48.695Z,1007.61
2023-03-05T06:51:48.676Z,1007.58
2023-03-05T06:52:48.649Z,1007.64
2023-03-05T06:53:49.593Z,1007.67
2023-03-05T06:54:48.654Z,1007.65
2023-03-05T06:55:48.616Z,1007.69
2023-03-05T06:56:48.608Z,1007.70
2023-03-05T06:57:48.628Z,1007.65
2023-03-05T06:58:48.609Z,1007.72
2023-03-05T06:59:48.576Z,1007.68
2023-03-05T07:00:48.584Z,1007.69
2023-03-05T07:01:48.561Z,1007.68
2023-03-05T07:02:48.646Z,1007.65
2023-03-05T07:03:48.536Z,1007.61
2023-03-05T07:04:48.518Z,1007.67
2023-03-05T07:05:48.536Z,1007.66
2023-03-05T07:06:48.528Z,1007.67
2023-03-05T07:07:48.515Z,1007.67
2023-03-05T07:08:48.470Z,1007.73
2023-03-05T07:09:48.474Z,1007.65
2023-03-05T07:10:48.456Z,1007.73
2023-03-05T07:11:48.482Z,1007.67
2023-03-05T07:12:48.434Z,1007.72
2023-03-05T07:13:48.424Z,1007.74
2023-03-05T07:14:48.403Z,1007.76
2023-03-05T07:15:48.441Z,1007.79
2023-03-05T07:16:48.409Z,1007.82
2023-03-05T07:17:48.389Z,1007.78
2023-03-05T07:18:48.364Z,1007.72
2023-03-05T07:19:48.370Z,1007.74
2023-03-05T07:20:48.370Z,1007.78
2023-03-05T07:21:48.329Z,1007.67
2023-03-05T07:22:48.342Z,1007.79
2023-03-05T07:23:48.319Z,1007.77
2023-03-05T07:24:48.300Z,1007.71
2023-03-05T07:25:48.289Z,1007.78
2023-03-05T07:26:49.067Z,1007.76
2023-03-05T07:27:48.274Z,1007.82
2023-03-05T07:28:48.295Z,1007.79
2023-03-05T07:29:48.252Z,1007.84
2023-03-05T07:30:48.277Z,1007.85
2023-03-05T07:31:48.249Z,1007.86
2023-03-05T07:32:48.214Z,1007.86
2023-03-05T07:33:48.205Z,1007.94
2023-03-05T07:34:48.188Z,1007.86
2023-03-05T07:35:48.220Z,1007.85
2023-03-05T07:36:48.195Z,1007.88
2023-03-05T07:37:48.162Z,1007.83
2023-03-05T07:38:48.169Z,1007.89
2023-03-05T07:39:48.139Z,1007.81
2023-03-05T07:40:48.147Z,1007.82
2023-03-05T07:41:48.138Z,1007.83
2023-03-05T07:42:48.137Z,1007.83
2023-03-05T07:43:48.110Z,1007.80
2023-03-05T07:44:48.097Z,1007.79
2023-03-05T07:45:48.137Z,1007.81
2023-03-05T07:46:48.155Z,1007.75
2023-03-05T07:47:48.060Z,1007.80
2023-03-05T07:48:48.036Z,1007.78
2023-03-05T07:49:48.044Z,1007.89
2023-03-05T07:50:48.019Z,1007.85
2023-03-05T07:51:48.038Z,1007.89
2023-03-05T07:52:48.002Z,1007.82
2023-03-05T07:53:47.986Z,1007.83
2023-03-05T07:54:48.031Z,1007.80
2023-03-05T07:55:47.996Z,1007.87
2023-03-05T07:56:47.973Z,1007.82
2023-03-05T07:57:47.945Z,1007.85
2023-03-05T07:58:47.926Z,1007.83
2023-03-05T07:59:47.919Z,1007.88
2023-03-05T08:00:47.925Z,1007.79
2023-03-05T08:01:47.929Z,1007.78
2023-03-05T08:02:47.957Z,1007.86
2023-03-05T08:03:48.011Z,1007.83
2023-03-05T08:04:47.901Z,1007.77
2023-03-05T08:05:47.859Z,1007.77
2023-03-05T08:06:47.851Z,1007.74
2023-03-05T08:07:47.828Z,1007.75
2023-03-05T08:08:47.853Z,1007.79
2023-03-05T08:09:47.818Z,1007.74
2023-03-05T08:10:47.828Z,1007.73
2023-03-05T08:11:47.826Z,1007.76
2023-03-05T08:12:47.782Z,1007.79
2023-03-05T08:13:47.776Z,1007.74
2023-03-05T08:14:47.760Z,1007.81
2023-03-05T08:15:47.774Z,1007.82
2023-03-05T08:16:48.505Z,1007.68
2023-03-05T08:17:47.779Z,1007.77
2023-03-05T08:18:47.724Z,1007.76
2023-03-05T08:19:47.711Z,1007.73
2023-03-05T08:20:47.695Z,1007.73
2023-03-05T08:21:47.686Z,1007.74
2023-03-05T08:22:47.706Z,1007.68
2023-03-05T08:23:47.669Z,1007.70
2023-03-05T08:24:47.654Z,1007.64
2023-03-05T08:25:47.646Z,1007.68
2023-03-05T08:26:47.655Z,1007.68
2023-03-05T08:27:47.631Z,1007.66
2023-03-05T08:28:47.631Z,1007.68
2023-03-05T08:29:47.596Z,1007.76
2023-03-05T08:30:47.587Z,1007.68
2023-03-05T08:31:47.571Z,1007.70
2023-03-05T08:32:47.623Z,1007.67
2023-03-05T08:33:47.571Z,1007.65
2023-03-05T08:34:47.554Z,1007.63
2023-03-05T08:35:47.587Z,1007.64
2023-03-05T08:36:47.530Z,1007.65
2023-03-05T08:37:47.557Z,1007.63
2023-03-05T08:38:47.513Z,1007.66
2023-03-05T08:39:47.486Z,1007.52
2023-03-05T08:40:47.484Z,1007.56
2023-03-05T08:41:47.471Z,1007.54
2023-03-05T08:42:47.508Z,1007.51
2023-03-05T08:43:47.457Z,1007.48
2023-03-05T08:44:47.444Z,1007.45
2023-03-05T08:45:47.426Z,1007.48
2023-03-05T08:46:47.475Z,1007.43
2023-03-05T08:47:47.428Z,1007.45
2023-03-05T08:48:47.406Z,1007.43
2023-03-05T08:49:47.385Z,1007.35
2023-03-05T08:50:47.388Z,1007.34
2023-03-05T08:51:47.367Z,1007.32
2023-03-05T08:52:47.372Z,1007.34
2023-03-05T08:53:47.352Z,1007.34
2023-03-05T08:54:47.334Z,1007.35
2023-03-05T08:55:47.336Z,1007.22
2023-03-05T08:56:47.305Z,1007.31
2023-03-05T08:57:47.322Z,1007.24
2023-03-05T08:58:47.317Z,1007.23
2023-03-05T08:59:47.279Z,1007.38
2023-03-05T09:00:47.263Z,1007.30
2023-03-05T09:01:47.380Z,1007.29
2023-03-05T09:02:47.302Z,1007.26
2023-03-05T09:03:47.233Z,1007.28
2023-03-05T09:04:47.234Z,1007.26
2023-03-05T09:05:47.225Z,1007.40
2023-03-05T09:06:47.195Z,1007.39
2023-03-05T09:07:47.206Z,1007.35
2023-03-05T09:08:47.177Z,1007.35
2023-03-05T09:09:47.181Z,1007.36
2023-03-05T09:10:47.157Z,1007.35
2023-03-05T09:11:47.143Z,1007.33
2023-03-05T09:12:47.152Z,1007.24
2023-03-05T09:13:47.118Z,1007.24
2023-03-05T09:14:47.179Z,1007.28
2023-03-05T09:15:47.091Z,1007.24
2023-03-05T09:16:47.090Z,1007.26
2023-03-05T09:17:47.097Z,1007.24
2023-03-05T09:18:47.061Z,1007.28
2023-03-05T09:19:47.079Z,1007.23
2023-03-05T09:20:47.047Z,1007.28
2023-03-05T09:21:47.025Z,1007.18
2023-03-05T09:22:47.056Z,1007.25
2023-03-05T09:23:47.004Z,1007.23
2023-03-05T09:24:47.024Z,1007.22
2023-03-05T09:25:46.976Z,1007.27
2023-03-05T09:26:46.978Z,1007.18
2023-03-05T09:27:46.968Z,1007.19
2023-03-05T09:28:46.951Z,1007.20
2023-03-05T09:29:46.982Z,1007.16
2023-03-05T09:30:46.948Z,1007.14
2023-03-05T09:31:46.922Z,1007.13
2023-03-05T09:32:47.064Z,1007.09
2023-03-05T09:33:46.929Z,1007.16
2023-03-05T09:34:46.883Z,1007.08
2023-03-05T09:35:46.896Z,1007.08
2023-03-05T09:36:46.865Z,1007.14
2023-03-05T09:37:46.866Z,1007.06
2023-03-05T09:38:46.837Z,1007.10
2023-03-05T09:39:46.823Z,1007.08
2023-03-05T09:40:46.853Z,1007.10
2023-03-05T09:41:46.805Z,1007.12
2023-03-05T09:42:46.792Z,1007.17
2023-03-05T09:43:46.776Z,1007.14
2023-03-05T09:44:46.771Z,1007.10
2023-03-05T09:45:46.818Z,1007.14
2023-03-05T09:46:46.771Z,1007.12
2023-03-05T09:47:46.748Z,1007.18
2023-03-05T09:48:46.743Z,1007.09
2023-03-05T09:49:46.714Z,1007.14
2023-03-05T09:50:46.731Z,1007.14
2023-03-05T09:51:46.708Z,1007.05
2023-03-05T09:52:46.680Z,1007.11
2023-03-05T09:53:46.668Z,1007.09
2023-03-05T09:54:46.656Z,1007.09
2023-03-05T09:55:46.671Z,1007.08
2023-03-05T09:56:46.642Z,1007.04
2023-03-05T09:57:46.632Z,1007.06
2023-03-05T09:58:46.624Z,1007.11
2023-03-05T09:59:46.604Z,1007.04
2023-03-05T10:00:46.616Z,1007.09
2023-03-05T10:01:46.590Z,1007.05
2023-03-05T10:02:46.630Z,1007.05
2023-03-05T10:03:46.611Z,1007.07
2023-03-05T10:04:46.552Z,1007.07
2023-03-05T10:05:46.555Z,1007.02
2023-03-05T10:06:46.533Z,1007.04
2023-03-05T10:07:46.514Z,1006.98
2023-03-05T10:08:46.511Z,1007.04
2023-03-05T10:09:46.496Z,1006.98
2023-03-05T10:10:46.501Z,1007.01
2023-03-05T10:11:46.473Z,1006.96
2023-03-05T10:12:46.465Z,1006.99
2023-03-05T10:13:46.470Z,1006.92
2023-03-05T10:14:46.442Z,1006.92
2023-03-05T10:15:46.424Z,1006.96
2023-03-05T10:16:46.427Z,1006.95
2023-03-05T10:17:46.404Z,1007.01
2023-03-05T10:18:46.433Z,1006.92
2023-03-05T10:19:46.392Z,1006.87
2023-03-05T10:20:46.401Z,1006.93
2023-03-05T10:21:46.377Z,1006.90
2023-03-05T10:22:46.347Z,1006.97
2023-03-05T10:23:46.333Z,1007.02
2023-03-05T10:24:46.323Z,1006.93
2023-03-05T10:25:46.335Z,1007.03
2023-03-05T10:26:46.333Z,1006.97
2023-03-05T10:27:46.295Z,1006.98
2023-03-05T10:28:46.283Z,1007.04
2023-03-05T10:29:46.270Z,1006.97
2023-03-05T10:30:46.288Z,1006.97
2023-03-05T10:31:46.303Z,1006.86
2023-03-05T10:32:46.315Z,1006.98
2023-03-05T10:33:46.231Z,1006.95
2023-03-05T10:34:46.294Z,1006.92
2023-03-05T10:35:46.323Z,1006.95
2023-03-05T10:36:46.195Z,1006.97
2023-03-05T10:37:46.177Z,1006.94
2023-03-05T10:38:46.174Z,1006.96
2023-03-05T10:39:46.173Z,1006.83
2023-03-05T10:40:46.187Z,1006.78
2023-03-05T10:41:46.139Z,1006.85
2023-03-05T10:42:46.127Z,1006.87
2023-03-05T10:43:46.134Z,1006.85
2023-03-05T10:44:46.111Z,1006.80
2023-03-05T10:45:46.128Z,1006.77
2023-03-05T10:46:46.100Z,1006.72
2023-03-05T10:47:46.068Z,1006.73
2023-03-05T10:48:46.088Z,1006.69
2023-03-05T10:49:46.048Z,1006.68
2023-03-05T10:50:46.073Z,1006.74
2023-03-05T10:51:46.046Z,1006.75
2023-03-05T10:52:46.017Z,1006.69
2023-03-05T10:53:46.001Z,1006.74
2023-03-05T10:54:45.989Z,1006.70
2023-03-05T10:55:45.979Z,1006.67
2023-03-05T10:56:46.001Z,1006.62
2023-03-05T10:57:45.965Z,1006.66
2023-03-05T10:58:45.952Z,1006.65
2023-03-05T10:59:45.938Z,1006.68
2023-03-05T11:00:45.954Z,1006.69
2023-03-05T11:01:46.032Z,1006.63
2023-03-05T11:02:45.959Z,1006.67
2023-03-05T11:03:45.907Z,1006.71
2023-03-05T11:04:45.884Z,1006.74
2023-03-05T11:05:45.892Z,1006.75
2023-03-05T11:06:45.915Z,1006.75
2023-03-05T11:07:45.869Z,1006.71
2023-03-05T11:08:45.832Z,1006.73
2023-03-05T11:09:45.820Z,1006.73
2023-03-05T11:10:45.821Z,1006.74
2023-03-05T11:11:45.806Z,1006.67
2023-03-05T11:12:45.820Z,1006.72
2023-03-05T11:13:45.775Z,1006.73
2023-03-05T11:14:45.763Z,1006.76
2023-03-05T11:15:45.865Z,1006.72
2023-03-05T11:16:45.769Z,1006.65
2023-03-05T11:17:45.754Z,1006.73
2023-03-05T11:18:45.718Z,1006.72
2023-03-05T11:19:45.704Z,1006.78
2023-03-05T11:20:45.704Z,1006.72
2023-03-05T11:21:45.690Z,1006.72
2023-03-05T11:22:45.714Z,1006.66
2023-03-05T11:23:45.698Z,1006.60
2023-03-05T11:24:45.655Z,1006.62
2023-03-05T11:25:45.638Z,1006.68
2023-03-05T11:26:45.654Z,1006.67
2023-03-05T11:27:45.629Z,1006.63
2023-03-05T11:28:45.609Z,1006.56
2023-03-05T11:29:45.595Z,1006.61
2023-03-05T11:30:45.603Z,1006.63
2023-03-05T11:31:45.599Z,1006.64
2023-03-05T11:32:45.563Z,1006.56
2023-03-05T11:33:45.548Z,1006.66
2023-03-05T11:34:45.547Z,1006.63
2023-03-05T11:35:45.585Z,1006.60
2023-03-05T11:36:45.555Z,1006.69
2023-03-05T11:37:45.508Z,1006.57
2023-03-05T11:38:45.521Z,1006.61
2023-03-05T11:39:45.489Z,1006.52
2023-03-05T11:40:45.484Z,1006.60
2023-03-05T11:41:45.468Z,1006.64
2023-03-05T11:42:45.487Z,1006.60
2023-03-05T11:43:45.445Z,1006.54
2023-03-05T11:44:45.433Z,1006.51
2023-03-05T11:45:45.420Z,1006.50
2023-03-05T11:46:45.413Z,1006.45
2023-03-05T11:47:45.419Z,1006.43
2023-03-05T11:48:45.391Z,1006.41
2023-03-05T11:49:45.386Z,1006.46
2023-03-05T11:50:45.362Z,1006.46
2023-03-05T11:51:45.363Z,1006.41
2023-03-05T11:52:45.373Z,1006.37
2023-03-05T11:53:45.334Z,1006.40
2023-03-05T11:54:45.381Z,1006.41
2023-03-05T11:55:45.309Z,1006.39
2023-03-05T11:56:45.313Z,1006.37
2023-03-05T11:57:45.291Z,1006.35
2023-03-05T11:58:45.276Z,1006.35
2023-03-05T11:59:45.299Z,1006.29
2023-03-05T12:00:45.266Z,1006.27
2023-03-05T12:01:45.252Z,1006.31
2023-03-05T12:02:45.302Z,1006.29
2023-03-05T12:03:45.294Z,1006.27
2023-03-05T12:04:45.299Z,1006.23
2023-03-05T12:05:45.234Z,1006.24